createdAt,value
2019-04-06T00:01:32.044Z,98258.78
2019-04-06T00:04:00.478Z,98254.44
2019-04-06T00:06:28.905Z,98249.19
2019-04-06T00:08:57.356Z,98250.97
2019-04-06T00:11:25.786Z,98255.33
2019-04-06T00:13:54.210Z,98257.52
2019-04-06T00:16:22.671Z,98258.84
2019-04-06T00:18:51.099Z,98265.34
2019-04-06T00:21:19.529Z,98266.23
2019-04-06T00:23:47.995Z,98263.59
2019-04-06T00:26:16.764Z,98262.27
2019-04-06T00:28:45.228Z,98268.36
2019-04-06T00:31:30.734Z,98262.69
2019-04-06T00:33:59.174Z,98260.95
2019-04-06T00:36:27.604Z,98258.34
2019-04-06T00:38:56.064Z,98253.09
2019-04-06T00:41:24.485Z,98255.72
2019-04-06T00:43:52.929Z,98247.39
2019-04-06T00:46:21.657Z,98256.56
2019-04-06T00:48:50.098Z,98243.44
2019-04-06T00:51:18.533Z,98250.88
2019-04-06T00:53:47.003Z,98246.06
2019-04-06T00:56:15.431Z,98248.67
2019-04-06T00:58:43.879Z,98250.00
2019-04-06T01:01:12.804Z,98253.08
2019-04-06T01:03:41.230Z,98253.09
2019-04-06T01:06:09.800Z,98249.58
2019-04-06T01:08:38.551Z,98241.71
2019-04-06T01:11:07.066Z,98240.40
2019-04-06T01:13:35.516Z,98242.60
2019-04-06T01:16:03.941Z,98237.78
2019-04-06T01:18:32.376Z,98236.05
2019-04-06T01:21:00.970Z,98236.06
2019-04-06T01:23:29.439Z,98236.48
2019-04-06T01:26:06.607Z,98237.37
2019-04-06T01:28:28.044Z,98233.86
2019-04-06T01:30:56.549Z,98234.33
2019-04-06T01:33:25.012Z,98232.13
2019-04-06T01:35:53.433Z,98234.75
2019-04-06T01:38:22.149Z,98233.02
2019-04-06T01:40:50.615Z,98233.87
2019-04-06T01:43:19.051Z,98236.06
2019-04-06T01:45:47.506Z,98231.66
2019-04-06T01:48:16.385Z,98234.27
2019-04-06T01:50:45.171Z,98236.88
2019-04-06T01:53:13.734Z,98239.06
2019-04-06T01:55:42.201Z,98234.66
2019-04-06T01:58:10.634Z,98232.91
2019-04-06T02:00:40.704Z,98228.95
2019-04-06T02:03:10.239Z,98234.22
2019-04-06T02:05:38.668Z,98238.15
2019-04-06T02:08:07.163Z,98239.41
2019-04-06T02:10:35.622Z,98233.31
2019-04-06T02:13:04.042Z,98230.69
2019-04-06T02:15:32.470Z,98238.10
2019-04-06T02:18:01.327Z,98233.33
2019-04-06T02:20:29.784Z,98235.55
2019-04-06T02:22:58.485Z,98235.14
2019-04-06T02:25:27.273Z,98232.09
2019-04-06T02:27:56.030Z,98233.83
2019-04-06T02:30:29.082Z,98231.20
2019-04-06T02:33:17.221Z,98231.20
2019-04-06T02:35:50.304Z,98227.69
2019-04-06T02:38:35.503Z,98226.80
2019-04-06T02:41:09.015Z,98228.97
2019-04-06T02:43:39.080Z,98227.61
2019-04-06T02:46:07.593Z,98229.35
2019-04-06T02:48:36.019Z,98233.23
2019-04-06T02:51:04.716Z,98225.82
2019-04-06T02:53:33.246Z,98231.98
2019-04-06T02:56:01.671Z,98235.52
2019-04-06T02:58:30.098Z,98235.55
2019-04-06T03:00:58.618Z,98238.16
2019-04-06T03:03:27.123Z,98225.05
2019-04-06T03:05:55.539Z,98227.67
2019-04-06T03:08:23.982Z,98224.16
2019-04-06T03:10:52.481Z,98228.52
2019-04-06T03:13:20.917Z,98229.00
2019-04-06T03:15:49.365Z,98222.03
2019-04-06T03:18:17.791Z,98225.98
2019-04-06T03:20:46.225Z,98223.38
2019-04-06T03:23:14.685Z,98216.38
2019-04-06T03:25:43.101Z,98218.13
2019-04-06T03:28:11.897Z,98215.97
2019-04-06T03:30:40.340Z,98213.78
2019-04-06T03:33:09.236Z,98220.34
2019-04-06T03:35:37.840Z,98214.70
2019-04-06T03:38:06.424Z,98216.46
2019-04-06T03:40:34.835Z,98216.87
2019-04-06T03:43:03.423Z,98213.84
2019-04-06T03:45:31.910Z,98208.16
2019-04-06T03:48:00.372Z,98214.75
2019-04-06T03:50:28.908Z,98210.82
2019-04-06T03:52:57.394Z,98210.42
2019-04-06T03:55:25.790Z,98211.31
2019-04-06T03:57:54.182Z,98213.49
2019-04-06T04:00:22.653Z,98205.27
2019-04-06T04:02:51.007Z,98210.11
2019-04-06T04:05:19.467Z,98204.88
2019-04-06T04:07:47.906Z,98210.13
2019-04-06T04:10:28.070Z,98219.36
2019-04-06T04:12:56.586Z,98216.73
2019-04-06T04:15:25.005Z,98221.03
2019-04-06T04:17:53.662Z,98216.65
2019-04-06T04:20:22.218Z,98219.20
2019-04-06T04:22:50.611Z,98219.18
2019-04-06T04:25:19.007Z,98215.65
2019-04-06T04:27:47.539Z,98217.78
2019-04-06T04:30:31.062Z,98211.16
2019-04-06T04:32:46.034Z,98215.04
2019-04-06T04:35:14.466Z,98211.94
2019-04-06T04:37:43.099Z,98211.93
2019-04-06T04:40:11.635Z,98216.28
2019-04-06T04:42:40.056Z,98223.32
2019-04-06T04:45:09.188Z,98222.03
2019-04-06T04:47:37.738Z,98231.70
2019-04-06T04:50:07.919Z,98229.09
2019-04-06T04:52:38.486Z,98226.06
2019-04-06T04:55:08.173Z,98233.93
2019-04-06T04:57:41.203Z,98229.58
2019-04-06T05:00:07.539Z,98237.45
2019-04-06T05:02:36.336Z,98240.98
2019-04-06T05:05:06.536Z,98236.59
2019-04-06T05:07:35.050Z,98242.72
2019-04-06T05:10:04.590Z,98242.28
2019-04-06T05:12:33.025Z,98235.74
2019-04-06T05:15:04.069Z,98240.57
2019-04-06T05:17:34.551Z,98241.02
2019-04-06T05:20:07.063Z,98241.07
2019-04-06T05:22:35.478Z,98237.58
2019-04-06T05:25:05.639Z,98236.73
2019-04-06T05:27:34.103Z,98245.48
2019-04-06T05:30:02.512Z,98251.16
2019-04-06T05:32:30.908Z,98254.25
2019-04-06T05:34:59.578Z,98254.27
2019-04-06T05:37:28.201Z,98257.78
2019-04-06T05:39:56.658Z,98252.11
2019-04-06T05:42:25.096Z,98255.17
2019-04-06T05:44:53.501Z,98258.72
2019-04-06T05:47:21.901Z,98263.55
2019-04-06T05:49:50.337Z,98259.62
2019-04-06T05:52:18.740Z,98258.77
2019-04-06T05:54:47.146Z,98260.94
2019-04-06T05:57:15.567Z,98258.77
2019-04-06T05:59:43.966Z,98259.62
2019-04-06T06:02:12.561Z,98260.92
2019-04-06T06:04:41.327Z,98253.48
2019-04-06T06:07:09.820Z,98261.29
2019-04-06T06:09:38.271Z,98260.81
2019-04-06T06:12:07.831Z,98258.55
2019-04-06T06:14:36.416Z,98255.41
2019-04-06T06:17:04.815Z,98257.89
2019-04-06T06:19:33.209Z,98257.37
2019-04-06T06:22:01.610Z,98261.67
2019-04-06T06:24:30.191Z,98269.93
2019-04-06T06:26:58.848Z,98264.61
2019-04-06T06:29:27.249Z,98273.75
2019-04-06T06:31:55.672Z,98278.38
2019-04-06T06:34:24.068Z,98273.70
2019-04-06T06:36:52.465Z,98269.59
2019-04-06T06:39:20.882Z,98273.41
2019-04-06T06:41:49.775Z,98276.80
2019-04-06T06:44:18.205Z,98275.73
2019-04-06T06:46:46.666Z,98273.45
2019-04-06T06:49:15.025Z,98283.02
2019-04-06T06:51:43.420Z,98279.45
2019-04-06T06:54:12.113Z,98278.13
2019-04-06T06:56:40.601Z,98275.41
2019-04-06T06:59:09.304Z,98279.34
2019-04-06T07:01:37.732Z,98278.94
2019-04-06T07:04:06.132Z,98284.30
2019-04-06T07:06:34.528Z,98280.59
2019-04-06T07:09:04.588Z,98278.13
2019-04-06T07:11:33.062Z,98278.13
2019-04-06T07:14:01.447Z,98277.20
2019-04-06T07:16:29.964Z,98274.09
2019-04-06T07:18:58.588Z,98274.03
2019-04-06T07:21:26.984Z,98271.44
2019-04-06T07:23:55.752Z,98270.99
2019-04-06T07:26:24.160Z,98268.33
2019-04-06T07:28:52.599Z,98266.40
2019-04-06T07:31:20.977Z,98265.40
2019-04-06T07:33:49.380Z,98268.92
2019-04-06T07:36:17.824Z,98269.70
2019-04-06T07:38:46.363Z,98261.87
2019-04-06T07:41:14.755Z,98262.22
2019-04-06T07:43:43.152Z,98267.44
2019-04-06T07:46:11.564Z,98266.82
2019-04-06T07:48:40.029Z,98262.06
2019-04-06T07:51:08.624Z,98264.69
2019-04-06T07:53:37.417Z,98262.41
2019-04-06T07:56:05.949Z,98263.06
2019-04-06T07:58:34.280Z,98260.11
2019-04-06T08:01:02.699Z,98251.17
2019-04-06T08:03:31.095Z,98255.06
2019-04-06T08:05:59.490Z,98262.84
2019-04-06T08:08:28.977Z,98250.72
2019-04-06T08:10:57.744Z,98259.83
2019-04-06T08:13:26.293Z,98254.44
2019-04-06T08:15:54.674Z,98253.69
2019-04-06T08:18:23.757Z,98249.30
2019-04-06T08:20:52.124Z,98253.39
2019-04-06T08:23:20.549Z,98252.21
2019-04-06T08:25:48.953Z,98251.47
2019-04-06T08:28:17.361Z,98257.62
2019-04-06T08:30:46.806Z,98261.77
2019-04-06T08:33:15.613Z,98260.44
2019-04-06T08:35:44.094Z,98255.94
2019-04-06T08:38:12.821Z,98254.08
2019-04-06T08:40:41.228Z,98257.25
2019-04-06T08:43:09.912Z,98256.08
2019-04-06T08:45:38.332Z,98263.17
2019-04-06T08:48:07.065Z,98255.20
2019-04-06T08:50:35.464Z,98253.78
2019-04-06T08:53:03.894Z,98248.06
2019-04-06T08:55:32.373Z,98251.41
2019-04-06T08:58:00.771Z,98247.70
2019-04-06T09:00:29.193Z,98247.29
2019-04-06T09:02:57.601Z,98247.39
2019-04-06T09:05:26.006Z,98246.23
2019-04-06T09:07:54.441Z,98260.89
2019-04-06T09:10:22.843Z,98253.39
2019-04-06T09:12:51.238Z,98246.35
2019-04-06T09:15:19.672Z,98255.49
2019-04-06T09:17:48.074Z,98241.13
2019-04-06T09:20:16.553Z,98247.32
2019-04-06T09:22:45.097Z,98244.80
2019-04-06T09:25:13.568Z,98251.31
2019-04-06T09:27:41.968Z,98242.28
2019-04-06T09:30:10.633Z,98229.61
2019-04-06T09:32:39.034Z,98226.50
2019-04-06T09:35:09.178Z,98236.74
2019-04-06T09:37:37.638Z,98229.54
2019-04-06T09:40:07.156Z,98230.28
2019-04-06T09:42:35.577Z,98225.64
2019-04-06T09:45:23.264Z,98228.62
2019-04-06T09:48:08.658Z,98231.56
2019-04-06T09:50:55.376Z,98219.72
2019-04-06T09:53:26.392Z,98217.25
2019-04-06T09:55:58.877Z,98218.67
2019-04-06T09:58:34.920Z,98216.64
2019-04-06T10:01:07.599Z,98216.80
2019-04-06T10:03:46.448Z,98216.11
2019-04-06T10:06:22.106Z,98220.38
2019-04-06T10:08:52.183Z,98215.52
2019-04-06T10:11:22.557Z,98222.26
2019-04-06T10:13:52.627Z,98225.03
2019-04-06T10:16:39.489Z,98220.83
2019-04-06T10:19:28.098Z,98221.55
2019-04-06T10:22:04.309Z,98221.23
2019-04-06T10:24:50.541Z,98220.50
2019-04-06T10:27:22.997Z,98222.06
2019-04-06T10:29:56.045Z,98220.14
2019-04-06T10:32:28.948Z,98211.93
2019-04-06T10:35:14.243Z,98221.42
2019-04-06T10:37:44.239Z,98215.58
2019-04-06T10:40:20.266Z,98223.03
2019-04-06T10:43:06.570Z,98213.08
2019-04-06T10:45:42.339Z,98222.39
2019-04-06T10:48:28.841Z,98220.02
2019-04-06T10:50:58.916Z,98220.30
2019-04-06T10:53:28.952Z,98221.79
2019-04-06T10:56:01.754Z,98210.80
2019-04-06T10:58:37.983Z,98208.83
2019-04-06T11:01:19.629Z,98204.39
2019-04-06T11:04:04.830Z,98199.36
2019-04-06T11:06:35.004Z,98207.03
2019-04-06T11:09:17.935Z,98207.66
2019-04-06T11:11:48.136Z,98205.97
2019-04-06T11:14:27.265Z,98206.84
2019-04-06T11:17:15.353Z,98209.81
2019-04-06T11:19:45.422Z,98212.22
2019-04-06T11:22:24.590Z,98206.63
2019-04-06T11:25:12.472Z,98199.94
2019-04-06T11:27:57.878Z,98197.77
2019-04-06T11:30:30.380Z,98201.39
2019-04-06T11:33:16.578Z,98196.05
2019-04-06T11:36:02.659Z,98195.02
2019-04-06T11:38:42.881Z,98195.66
2019-04-06T11:41:27.909Z,98186.66
2019-04-06T11:44:00.635Z,98180.49
2019-04-06T11:46:30.942Z,98179.69
2019-04-06T11:49:01.119Z,98182.39
2019-04-06T11:51:36.642Z,98180.53
2019-04-06T11:54:06.778Z,98175.72
2019-04-06T11:56:42.736Z,98174.84
2019-04-06T11:59:27.498Z,98175.77
2019-04-06T12:02:03.102Z,98177.56
2019-04-06T12:04:48.462Z,98183.45
2019-04-06T12:07:18.499Z,98177.21
2019-04-06T12:10:03.635Z,98180.69
2019-04-06T12:12:48.412Z,98174.95
2019-04-06T12:15:27.733Z,98184.48
2019-04-06T12:18:14.975Z,98169.98
2019-04-06T12:21:02.248Z,98179.84
2019-04-06T12:23:33.432Z,98172.50
2019-04-06T12:26:09.629Z,98167.79
2019-04-06T12:28:39.944Z,98167.58
2019-04-06T12:31:12.994Z,98172.16
2019-04-06T12:33:59.343Z,98170.84
2019-04-06T12:36:44.712Z,98164.47
2019-04-06T12:39:29.932Z,98163.66
2019-04-06T12:42:16.480Z,98161.97
2019-04-06T12:44:49.661Z,98169.00
2019-04-06T12:47:25.772Z,98157.77
2019-04-06T12:50:01.799Z,98165.08
2019-04-06T12:52:41.229Z,98161.20
2019-04-06T12:55:20.662Z,98157.16
2019-04-06T12:57:56.495Z,98152.39
2019-04-06T13:00:50.722Z,98153.06
2019-04-06T13:03:20.409Z,98153.09
2019-04-06T13:05:56.821Z,98151.25
2019-04-06T13:08:43.149Z,98145.17
2019-04-06T13:11:22.546Z,98158.46
2019-04-06T13:14:01.271Z,98143.13
2019-04-06T13:16:34.258Z,98147.38
2019-04-06T13:19:22.377Z,98143.48
2019-04-06T13:22:09.066Z,98137.09
2019-04-06T13:24:45.033Z,98144.61
2019-04-06T13:27:23.646Z,98143.59
2019-04-06T13:29:59.802Z,98140.35
2019-04-06T13:32:46.067Z,98140.27
2019-04-06T13:35:18.868Z,98145.98
2019-04-06T13:37:58.261Z,98137.70
2019-04-06T13:40:31.282Z,98129.91
2019-04-06T13:43:01.324Z,98127.58
2019-04-06T13:45:47.302Z,98133.84
2019-04-06T13:48:35.698Z,98124.55
2019-04-06T13:51:11.673Z,98129.38
2019-04-06T13:53:44.984Z,98125.45
2019-04-06T13:56:30.883Z,98125.20
2019-04-06T13:59:00.930Z,98127.73
2019-04-06T14:01:30.986Z,98122.12
2019-04-06T14:04:13.668Z,98121.73
2019-04-06T14:06:43.718Z,98122.94
2019-04-06T14:09:16.532Z,98114.95
2019-04-06T14:11:52.326Z,98116.96
2019-04-06T14:14:38.809Z,98120.95
2019-04-06T14:17:08.900Z,98118.93
2019-04-06T14:19:41.562Z,98115.42
2019-04-06T14:22:17.562Z,98113.10
2019-04-06T14:24:47.608Z,98117.33
2019-04-06T14:27:20.091Z,98117.41
2019-04-06T14:29:52.579Z,98111.59
2019-04-06T14:32:22.617Z,98102.87
2019-04-06T14:34:52.671Z,98098.75
2019-04-06T14:37:22.721Z,98094.51
2019-04-06T14:40:09.308Z,98083.33
2019-04-06T14:42:42.818Z,98097.27
2019-04-06T14:45:15.593Z,98092.50
2019-04-06T14:47:45.881Z,98094.87
2019-04-06T14:50:25.017Z,98096.17
2019-04-06T14:53:03.792Z,98095.17
2019-04-06T14:55:52.413Z,98097.44
2019-04-06T14:58:39.137Z,98097.02
2019-04-06T15:01:15.527Z,98091.83
2019-04-06T15:03:45.771Z,98098.34
2019-04-06T15:06:18.557Z,98091.00
2019-04-06T15:08:48.831Z,98094.08
2019-04-06T15:11:37.272Z,98098.86
2019-04-06T15:14:23.836Z,98099.70
2019-04-06T15:16:59.591Z,98091.05
2019-04-06T15:19:32.130Z,98097.95
2019-04-06T15:22:08.076Z,98095.72
2019-04-06T15:24:44.090Z,98095.49
2019-04-06T15:27:17.125Z,98097.02
2019-04-06T15:29:47.164Z,98094.52
2019-04-06T15:32:35.623Z,98098.38
2019-04-06T15:35:15.724Z,98099.67
2019-04-06T15:37:45.794Z,98100.86
2019-04-06T15:40:23.032Z,98094.05
2019-04-06T15:42:59.086Z,98092.91
2019-04-06T15:45:47.158Z,98087.84
2019-04-06T15:48:38.935Z,98091.62
2019-04-06T15:51:08.532Z,98085.31
2019-04-06T15:53:41.506Z,98082.72
2019-04-06T15:56:14.090Z,98082.91
2019-04-06T15:58:47.310Z,98080.37
2019-04-06T16:01:20.489Z,98076.66
2019-04-06T16:03:53.439Z,98079.77
2019-04-06T16:06:29.859Z,98076.78
2019-04-06T16:08:59.951Z,98080.88
2019-04-06T16:11:32.743Z,98077.84
2019-04-06T16:14:08.953Z,98077.17
2019-04-06T16:16:41.676Z,98074.03
2019-04-06T16:19:12.081Z,98081.16
2019-04-06T16:21:42.149Z,98076.30
2019-04-06T16:24:18.334Z,98083.81
2019-04-06T16:27:00.157Z,98080.28
2019-04-06T16:29:32.984Z,98076.69
2019-04-06T16:32:11.667Z,98071.44
2019-04-06T16:34:37.602Z,98078.14
2019-04-06T16:37:22.890Z,98076.09
2019-04-06T16:40:02.465Z,98075.81
2019-04-06T16:42:38.320Z,98074.42
2019-04-06T16:45:17.419Z,98072.22
2019-04-06T16:47:56.431Z,98069.56
2019-04-06T16:50:26.476Z,98066.13
2019-04-06T16:52:59.901Z,98065.70
2019-04-06T16:55:42.086Z,98064.86
2019-04-06T16:58:20.598Z,98068.91
2019-04-06T17:00:50.673Z,98074.21
2019-04-06T17:03:32.908Z,98074.33
2019-04-06T17:06:03.125Z,98081.08
2019-04-06T17:08:51.050Z,98083.34
2019-04-06T17:11:27.225Z,98085.23
2019-04-06T17:14:09.527Z,98088.67
2019-04-06T17:16:55.852Z,98100.10
2019-04-06T17:20:05.153Z,98096.69
2019-04-06T17:22:20.503Z,98094.57
2019-04-06T17:24:50.987Z,98096.77
2019-04-06T17:27:21.167Z,98098.15
2019-04-06T17:29:57.709Z,98104.15
2019-04-06T17:32:36.381Z,98111.98
2019-04-06T17:35:03.776Z,98111.40
2019-04-06T17:37:48.951Z,98111.84
2019-04-06T17:40:25.412Z,98110.28
2019-04-06T17:43:01.299Z,98110.42
2019-04-06T17:45:34.659Z,98115.34
2019-04-06T17:48:21.759Z,98114.70
2019-04-06T17:50:57.588Z,98118.92
2019-04-06T17:53:39.897Z,98126.83
2019-04-06T17:56:10.033Z,98120.30
2019-04-06T17:58:40.072Z,98122.31
2019-04-06T18:01:26.675Z,98124.70
2019-04-06T18:03:59.167Z,98128.38
2019-04-06T18:06:37.355Z,98135.63
2019-04-06T18:09:25.870Z,98136.31
2019-04-06T18:11:55.928Z,98134.78
2019-04-06T18:14:24.659Z,98131.00
2019-04-06T18:16:53.106Z,98136.08
2019-04-06T18:19:21.608Z,98142.92
2019-04-06T18:21:50.016Z,98138.20
2019-04-06T18:24:18.412Z,98143.28
2019-04-06T18:26:46.832Z,98146.05
2019-04-06T18:29:15.244Z,98147.91
2019-04-06T18:31:52.630Z,98148.87
2019-04-06T18:34:21.690Z,98152.94
2019-04-06T18:36:54.603Z,98152.62
2019-04-06T18:39:24.673Z,98157.60
2019-04-06T18:41:53.665Z,98159.05
2019-04-06T18:44:22.088Z,98162.82
2019-04-06T18:46:50.487Z,98173.25
2019-04-06T18:49:19.217Z,98176.22
2019-04-06T18:51:47.858Z,98178.78
2019-04-06T18:54:16.517Z,98182.18
2019-04-06T18:56:44.981Z,98190.12
2019-04-06T18:59:13.378Z,98190.02
2019-04-06T19:01:41.786Z,98186.28
2019-04-06T19:04:10.475Z,98191.73
2019-04-06T19:06:38.874Z,98193.68
2019-04-06T19:09:20.507Z,98188.13
2019-04-06T19:11:39.204Z,98190.03
2019-04-06T19:14:07.872Z,98189.36
2019-04-06T19:16:36.666Z,98186.58
2019-04-06T19:19:06.097Z,98191.21
2019-04-06T19:21:34.566Z,98190.94
2019-04-06T19:24:03.172Z,98192.89
2019-04-06T19:26:31.563Z,98184.25
2019-04-06T19:29:00.513Z,98195.02
2019-04-06T19:31:28.919Z,98190.81
2019-04-06T19:33:57.876Z,98185.72
2019-04-06T19:36:26.309Z,98192.08
2019-04-06T19:38:55.291Z,98195.24
2019-04-06T19:41:23.887Z,98190.88
2019-04-06T19:43:52.289Z,98195.56
2019-04-06T19:46:20.686Z,98191.43
2019-04-06T19:48:49.297Z,98200.28
2019-04-06T19:51:17.692Z,98201.72
2019-04-06T19:53:46.093Z,98201.52
2019-04-06T19:56:14.605Z,98200.89
2019-04-06T19:58:43.805Z,98202.86
2019-04-06T20:01:12.479Z,98204.42
2019-04-06T20:03:40.902Z,98202.79
2019-04-06T20:06:09.304Z,98209.52
2019-04-06T20:08:38.488Z,98207.44
2019-04-06T20:11:06.823Z,98211.52
2019-04-06T20:13:35.224Z,98210.22
2019-04-06T20:16:04.651Z,98206.30
2019-04-06T20:18:33.529Z,98212.08
2019-04-06T20:21:01.901Z,98212.69
2019-04-06T20:23:30.325Z,98211.67
2019-04-06T20:25:58.735Z,98206.18
2019-04-06T20:28:27.732Z,98210.80
2019-04-06T20:30:57.106Z,98213.50
2019-04-06T20:33:25.805Z,98216.66
2019-04-06T20:35:54.499Z,98214.08
2019-04-06T20:38:23.313Z,98212.84
2019-04-06T20:40:51.733Z,98218.13
2019-04-06T20:43:20.124Z,98217.29
2019-04-06T20:45:48.882Z,98220.75
2019-04-06T20:48:17.309Z,98225.87
2019-04-06T20:50:46.117Z,98227.00
2019-04-06T20:53:14.655Z,98229.14
2019-04-06T20:55:43.624Z,98221.16
2019-04-06T20:58:12.202Z,98222.44
2019-04-06T21:00:40.751Z,98220.30
2019-04-06T21:03:09.636Z,98226.09
2019-04-06T21:05:38.322Z,98221.79
2019-04-06T21:08:07.069Z,98219.66
2019-04-06T21:10:36.216Z,98225.88
2019-04-06T21:13:04.707Z,98223.73
2019-04-06T21:15:33.086Z,98222.48
2019-04-06T21:18:01.645Z,98221.43
2019-04-06T21:20:30.130Z,98220.36
2019-04-06T21:22:58.528Z,98223.76
2019-04-06T21:25:27.530Z,98218.49
2019-04-06T21:27:56.019Z,98222.02
2019-04-06T21:30:24.565Z,98226.39
2019-04-06T21:32:53.470Z,98223.52
2019-04-06T21:35:22.425Z,98222.52
2019-04-06T21:37:51.512Z,98225.16
2019-04-06T21:40:20.100Z,98223.42
2019-04-06T21:42:48.579Z,98221.34
2019-04-06T21:45:17.147Z,98228.82
2019-04-06T21:47:46.374Z,98220.14
2019-04-06T21:50:14.906Z,98215.33
2019-04-06T21:52:43.996Z,98212.28
2019-04-06T21:55:13.901Z,98210.97
2019-04-06T21:57:43.074Z,98198.59
2019-04-06T22:00:13.944Z,98200.73
2019-04-06T22:02:42.384Z,98190.98
2019-04-06T22:05:11.015Z,98188.34
2019-04-06T22:07:48.184Z,98184.39
2019-04-06T22:10:10.690Z,98175.11
2019-04-06T22:12:39.020Z,98170.70
2019-04-06T22:15:08.614Z,98169.80
2019-04-06T22:17:37.336Z,98164.06
2019-04-06T22:20:06.349Z,98158.48
2019-04-06T22:22:35.419Z,98166.57
2019-04-06T22:25:05.803Z,98158.95
2019-04-06T22:27:34.597Z,98156.02
2019-04-06T22:30:06.167Z,98161.49
2019-04-06T22:32:34.566Z,98156.98
2019-04-06T22:35:03.459Z,98148.77
2019-04-06T22:37:32.534Z,98146.64
2019-04-06T22:40:02.238Z,98143.19
2019-04-06T22:42:30.829Z,98143.22
2019-04-06T22:44:59.227Z,98137.14
2019-04-06T22:47:27.621Z,98134.47
2019-04-06T22:49:56.045Z,98135.84
2019-04-06T22:52:25.050Z,98132.91
2019-04-06T22:54:54.186Z,98133.15
2019-04-06T22:57:22.994Z,98136.77
2019-04-06T22:59:51.397Z,98133.36
2019-04-06T23:02:20.384Z,98138.14
2019-04-06T23:04:57.581Z,98127.13
2019-04-06T23:07:27.176Z,98135.39
2019-04-06T23:09:55.572Z,98133.95
2019-04-06T23:12:24.587Z,98143.84
2019-04-06T23:14:53.713Z,98137.38
2019-04-06T23:17:22.499Z,98141.98
2019-04-06T23:19:50.949Z,98142.05
2019-04-06T23:22:19.564Z,98145.64
2019-04-06T23:24:48.006Z,98148.39
2019-04-06T23:27:16.548Z,98137.09
2019-04-06T23:29:44.915Z,98138.02
2019-04-06T23:32:13.549Z,98137.14
2019-04-06T23:34:42.015Z,98134.12
2019-04-06T23:37:10.406Z,98134.55
2019-04-06T23:39:39.025Z,98129.77
2019-04-06T23:42:08.479Z,98135.42
2019-04-06T23:44:37.358Z,98127.63
2019-04-06T23:47:05.861Z,98131.50
2019-04-06T23:49:34.982Z,98125.75
2019-04-06T23:52:03.744Z,98133.69
2019-04-06T23:54:32.181Z,98130.74
2019-04-06T23:57:00.598Z,98130.70
2019-04-06T23:59:29.008Z,98133.22
